sensor_id;sensor_type;location;lat;lon;timestamp;P1;durP1;ratioP1;P2;durP2;ratioP2
56567;SDS011;42456;49.956;20.004;2023-12-28T00:02:14;26.60;;;12.70;;
56567;SDS011;42456;49.956;20.004;2023-12-28T00:04:42;25.00;;;12.40;;
56567;SDS011;42456;49.956;20.004;2023-12-28T00:07:08;25.00;;;11.60;;
56567;SDS011;42456;49.956;20.004;2023-12-28T00:09:35;25.90;;;11.60;;
56567;SDS011;42456;49.956;20.004;2023-12-28T00:12:02;22.60;;;11.00;;
56567;SDS011;42456;49.956;20.004;2023-12-28T00:14:30;24.20;;;11.20;;
56567;SDS011;42456;49.956;20.004;2023-12-28T00:16:57;26.90;;;12.00;;
56567;SDS011;42456;49.956;20.004;2023-12-28T00:19:24;26.20;;;11.10;;
56567;SDS011;42456;49.956;20.004;2023-12-28T00:21:51;22.40;;;11.70;;
56567;SDS011;42456;49.956;20.004;2023-12-28T00:24:19;24.60;;;11.20;;
56567;SDS011;42456;49.956;20.004;2023-12-28T00:26:48;27.20;;;11.90;;
56567;SDS011;42456;49.956;20.004;2023-12-28T00:29:15;26.00;;;11.90;;
56567;SDS011;42456;49.956;20.004;2023-12-28T00:31:42;24.50;;;11.50;;
56567;SDS011;42456;49.956;20.004;2023-12-28T00:34:09;23.80;;;11.40;;
56567;SDS011;42456;49.956;20.004;2023-12-28T00:36:36;24.80;;;12.40;;
56567;SDS011;42456;49.956;20.004;2023-12-28T00:39:03;26.60;;;12.30;;
56567;SDS011;42456;49.956;20.004;2023-12-28T00:41:30;25.40;;;12.60;;
56567;SDS011;42456;49.956;20.004;2023-12-28T00:43:57;27.10;;;13.10;;
56567;SDS011;42456;49.956;20.004;2023-12-28T00:46:24;28.30;;;13.10;;
56567;SDS011;42456;49.956;20.004;2023-12-28T00:48:51;29.00;;;12.70;;
56567;SDS011;42456;49.956;20.004;2023-12-28T00:51:19;22.10;;;10.20;;
56567;SDS011;42456;49.956;20.004;2023-12-28T00:53:47;20.10;;;9.60;;
56567;SDS011;42456;49.956;20.004;2023-12-28T00:56:14;21.20;;;10.70;;
56567;SDS011;42456;49.956;20.004;2023-12-28T00:58:41;24.80;;;9.60;;
56567;SDS011;42456;49.956;20.004;2023-12-28T01:01:10;24.70;;;10.90;;
56567;SDS011;42456;49.956;20.004;2023-12-28T01:03:37;21.00;;;9.70;;
56567;SDS011;42456;49.956;20.004;2023-12-28T01:06:05;21.90;;;10.10;;
56567;SDS011;42456;49.956;20.004;2023-12-28T01:08:32;26.10;;;11.20;;
56567;SDS011;42456;49.956;20.004;2023-12-28T01:11:01;19.70;;;8.40;;
56567;SDS011;42456;49.956;20.004;2023-12-28T01:13:28;21.10;;;9.80;;
56567;SDS011;42456;49.956;20.004;2023-12-28T01:15:55;19.40;;;9.00;;
56567;SDS011;42456;49.956;20.004;2023-12-28T01:18:22;20.00;;;8.80;;
56567;SDS011;42456;49.956;20.004;2023-12-28T01:20:50;23.70;;;9.40;;
56567;SDS011;42456;49.956;20.004;2023-12-28T01:23:17;18.90;;;8.40;;
56567;SDS011;42456;49.956;20.004;2023-12-28T01:25:43;14.30;;;7.50;;
56567;SDS011;42456;49.956;20.004;2023-12-28T01:28:10;18.90;;;8.00;;
56567;SDS011;42456;49.956;20.004;2023-12-28T01:30:37;18.40;;;7.60;;
56567;SDS011;42456;49.956;20.004;2023-12-28T01:33:04;17.70;;;7.90;;
56567;SDS011;42456;49.956;20.004;2023-12-28T01:35:32;18.80;;;7.20;;
56567;SDS011;42456;49.956;20.004;2023-12-28T01:37:59;14.10;;;6.90;;
56567;SDS011;42456;49.956;20.004;2023-12-28T01:40:28;17.40;;;7.60;;
56567;SDS011;42456;49.956;20.004;2023-12-28T01:42:55;18.50;;;7.90;;
56567;SDS011;42456;49.956;20.004;2023-12-28T01:45:22;13.40;;;6.10;;
56567;SDS011;42456;49.956;20.004;2023-12-28T01:47:49;14.90;;;6.50;;
56567;SDS011;42456;49.956;20.004;2023-12-28T01:50:18;15.40;;;6.70;;
56567;SDS011;42456;49.956;20.004;2023-12-28T01:52:45;16.00;;;6.80;;
56567;SDS011;42456;49.956;20.004;2023-12-28T01:55:13;15.20;;;7.00;;
56567;SDS011;42456;49.956;20.004;2023-12-28T01:57:41;15.60;;;6.60;;
56567;SDS011;42456;49.956;20.004;2023-12-28T02:00:08;14.00;;;6.10;;
56567;SDS011;42456;49.956;20.004;2023-12-28T02:02:35;12.20;;;6.10;;
56567;SDS011;42456;49.956;20.004;2023-12-28T02:05:03;12.90;;;6.00;;
56567;SDS011;42456;49.956;20.004;2023-12-28T02:07:30;12.30;;;5.60;;
56567;SDS011;42456;49.956;20.004;2023-12-28T02:09:58;12.00;;;5.90;;
56567;SDS011;42456;49.956;20.004;2023-12-28T02:12:25;12.10;;;5.60;;
56567;SDS011;42456;49.956;20.004;2023-12-28T02:14:52;14.60;;;6.90;;
56567;SDS011;42456;49.956;20.004;2023-12-28T02:17:23;16.60;;;7.60;;
56567;SDS011;42456;49.956;20.004;2023-12-28T02:20:01;16.00;;;8.40;;
56567;SDS011;42456;49.956;20.004;2023-12-28T02:22:32;14.30;;;6.80;;
56567;SDS011;42456;49.956;20.004;2023-12-28T02:25:07;12.60;;;6.20;;
56567;SDS011;42456;49.956;20.004;2023-12-28T02:27:36;13.20;;;5.90;;
56567;SDS011;42456;49.956;20.004;2023-12-28T02:30:13;10.60;;;5.20;;
56567;SDS011;42456;49.956;20.004;2023-12-28T02:32:54;13.50;;;5.20;;
56567;SDS011;42456;49.956;20.004;2023-12-28T02:35:37;13.00;;;5.30;;
56567;SDS011;42456;49.956;20.004;2023-12-28T02:38:17;12.60;;;5.60;;
56567;SDS011;42456;49.956;20.004;2023-12-28T02:40:44;15.50;;;5.80;;
56567;SDS011;42456;49.956;20.004;2023-12-28T02:43:14;10.80;;;5.00;;
56567;SDS011;42456;49.956;20.004;2023-12-28T02:45:40;11.00;;;5.10;;
56567;SDS011;42456;49.956;20.004;2023-12-28T02:48:08;12.40;;;5.20;;
56567;SDS011;42456;49.956;20.004;2023-12-28T02:50:35;10.40;;;5.20;;
56567;SDS011;42456;49.956;20.004;2023-12-28T02:53:02;12.20;;;6.00;;
56567;SDS011;42456;49.956;20.004;2023-12-28T02:55:30;10.10;;;4.80;;
56567;SDS011;42456;49.956;20.004;2023-12-28T02:57:58;12.00;;;5.10;;
56567;SDS011;42456;49.956;20.004;2023-12-28T03:00:28;9.90;;;4.50;;
56567;SDS011;42456;49.956;20.004;2023-12-28T03:02:56;11.90;;;5.10;;
56567;SDS011;42456;49.956;20.004;2023-12-28T03:05:23;11.60;;;5.30;;
56567;SDS011;42456;49.956;20.004;2023-12-28T03:07:50;10.90;;;5.60;;
56567;SDS011;42456;49.956;20.004;2023-12-28T03:10:17;12.20;;;5.60;;
56567;SDS011;42456;49.956;20.004;2023-12-28T03:12:44;10.40;;;5.20;;
56567;SDS011;42456;49.956;20.004;2023-12-28T03:15:12;10.60;;;4.90;;
56567;SDS011;42456;49.956;20.004;2023-12-28T03:17:39;10.90;;;5.40;;
56567;SDS011;42456;49.956;20.004;2023-12-28T03:20:07;10.50;;;4.70;;
56567;SDS011;42456;49.956;20.004;2023-12-28T03:22:35;10.80;;;4.80;;
56567;SDS011;42456;49.956;20.004;2023-12-28T03:25:02;10.00;;;4.40;;
56567;SDS011;42456;49.956;20.004;2023-12-28T03:27:29;11.20;;;4.80;;
56567;SDS011;42456;49.956;20.004;2023-12-28T03:29:56;9.70;;;4.70;;
56567;SDS011;42456;49.956;20.004;2023-12-28T03:32:23;10.80;;;5.00;;
56567;SDS011;42456;49.956;20.004;2023-12-28T03:34:50;10.50;;;5.50;;
56567;SDS011;42456;49.956;20.004;2023-12-28T03:37:17;9.40;;;5.30;;
56567;SDS011;42456;49.956;20.004;2023-12-28T03:39:44;11.30;;;6.20;;
56567;SDS011;42456;49.956;20.004;2023-12-28T03:42:13;11.90;;;6.60;;
56567;SDS011;42456;49.956;20.004;2023-12-28T03:44:40;11.20;;;5.90;;
56567;SDS011;42456;49.956;20.004;2023-12-28T03:47:07;12.00;;;5.20;;
56567;SDS011;42456;49.956;20.004;2023-12-28T03:49:34;10.10;;;4.90;;
56567;SDS011;42456;49.956;20.004;2023-12-28T03:52:01;12.70;;;5.70;;
56567;SDS011;42456;49.956;20.004;2023-12-28T03:54:28;10.40;;;5.20;;
56567;SDS011;42456;49.956;20.004;2023-12-28T03:56:55;10.20;;;4.90;;
56567;SDS011;42456;49.956;20.004;2023-12-28T03:59:22;9.30;;;4.40;;
56567;SDS011;42456;49.956;20.004;2023-12-28T04:01:48;9.10;;;4.40;;
56567;SDS011;42456;49.956;20.004;2023-12-28T04:04:15;10.30;;;4.40;;
56567;SDS011;42456;49.956;20.004;2023-12-28T04:06:42;8.70;;;4.90;;
56567;SDS011;42456;49.956;20.004;2023-12-28T04:09:11;10.50;;;5.70;;
56567;SDS011;42456;49.956;20.004;2023-12-28T04:11:39;10.20;;;5.30;;
56567;SDS011;42456;49.956;20.004;2023-12-28T04:14:06;8.90;;;4.80;;
56567;SDS011;42456;49.956;20.004;2023-12-28T04:16:33;10.80;;;5.70;;
56567;SDS011;42456;49.956;20.004;2023-12-28T04:19:00;11.20;;;5.70;;
56567;SDS011;42456;49.956;20.004;2023-12-28T04:21:27;11.80;;;5.50;;
56567;SDS011;42456;49.956;20.004;2023-12-28T04:23:53;11.40;;;5.00;;
56567;SDS011;42456;49.956;20.004;2023-12-28T04:26:20;11.00;;;4.90;;
56567;SDS011;42456;49.956;20.004;2023-12-28T04:28:47;11.90;;;5.50;;
56567;SDS011;42456;49.956;20.004;2023-12-28T04:31:14;10.90;;;5.00;;
56567;SDS011;42456;49.956;20.004;2023-12-28T04:33:42;9.90;;;5.30;;
56567;SDS011;42456;49.956;20.004;2023-12-28T04:36:09;13.90;;;6.90;;
56567;SDS011;42456;49.956;20.004;2023-12-28T04:38:36;10.50;;;5.70;;
56567;SDS011;42456;49.956;20.004;2023-12-28T04:41:05;11.60;;;6.60;;
56567;SDS011;42456;49.956;20.004;2023-12-28T04:43:32;12.50;;;6.30;;
56567;SDS011;42456;49.956;20.004;2023-12-28T04:46:02;10.10;;;4.90;;
56567;SDS011;42456;49.956;20.004;2023-12-28T04:48:34;8.10;;;4.00;;
56567;SDS011;42456;49.956;20.004;2023-12-28T04:51:02;6.90;;;3.70;;
56567;SDS011;42456;49.956;20.004;2023-12-28T04:53:29;6.90;;;3.90;;
56567;SDS011;42456;49.956;20.004;2023-12-28T04:55:56;9.20;;;4.70;;
56567;SDS011;42456;49.956;20.004;2023-12-28T04:58:23;9.50;;;4.70;;
56567;SDS011;42456;49.956;20.004;2023-12-28T05:00:50;11.50;;;5.20;;
56567;SDS011;42456;49.956;20.004;2023-12-28T05:03:17;9.20;;;4.90;;
56567;SDS011;42456;49.956;20.004;2023-12-28T05:05:44;7.90;;;3.90;;
56567;SDS011;42456;49.956;20.004;2023-12-28T05:08:11;10.70;;;4.30;;
56567;SDS011;42456;49.956;20.004;2023-12-28T05:10:38;10.50;;;4.70;;
56567;SDS011;42456;49.956;20.004;2023-12-28T05:13:05;9.20;;;5.00;;
56567;SDS011;42456;49.956;20.004;2023-12-28T05:15:32;8.70;;;4.60;;
56567;SDS011;42456;49.956;20.004;2023-12-28T05:17:58;7.60;;;4.50;;
56567;SDS011;42456;49.956;20.004;2023-12-28T05:20:26;10.50;;;4.60;;
56567;SDS011;42456;49.956;20.004;2023-12-28T05:22:53;12.90;;;5.80;;
56567;SDS011;42456;49.956;20.004;2023-12-28T05:25:20;8.20;;;4.60;;
56567;SDS011;42456;49.956;20.004;2023-12-28T05:27:46;9.20;;;4.90;;
56567;SDS011;42456;49.956;20.004;2023-12-28T05:30:13;8.20;;;4.20;;
56567;SDS011;42456;49.956;20.004;2023-12-28T05:32:41;9.90;;;4.50;;
56567;SDS011;42456;49.956;20.004;2023-12-28T05:35:07;8.70;;;4.30;;
56567;SDS011;42456;49.956;20.004;2023-12-28T05:37:34;8.10;;;4.20;;
56567;SDS011;42456;49.956;20.004;2023-12-28T05:40:01;12.30;;;4.70;;
56567;SDS011;42456;49.956;20.004;2023-12-28T05:42:29;9.20;;;4.90;;
56567;SDS011;42456;49.956;20.004;2023-12-28T05:44:56;12.30;;;6.00;;
56567;SDS011;42456;49.956;20.004;2023-12-28T05:47:23;9.90;;;5.50;;
56567;SDS011;42456;49.956;20.004;2023-12-28T05:49:50;11.40;;;5.80;;
56567;SDS011;42456;49.956;20.004;2023-12-28T05:52:18;10.00;;;4.60;;
56567;SDS011;42456;49.956;20.004;2023-12-28T05:54:46;9.60;;;5.00;;
56567;SDS011;42456;49.956;20.004;2023-12-28T05:57:15;12.30;;;5.20;;
56567;SDS011;42456;49.956;20.004;2023-12-28T05:59:42;10.80;;;4.50;;
56567;SDS011;42456;49.956;20.004;2023-12-28T06:02:09;11.00;;;5.00;;
56567;SDS011;42456;49.956;20.004;2023-12-28T06:04:36;8.90;;;4.90;;
56567;SDS011;42456;49.956;20.004;2023-12-28T06:07:03;10.90;;;5.00;;
56567;SDS011;42456;49.956;20.004;2023-12-28T06:09:32;10.60;;;4.90;;
56567;SDS011;42456;49.956;20.004;2023-12-28T06:11:59;10.90;;;5.80;;
56567;SDS011;42456;49.956;20.004;2023-12-28T06:14:26;11.50;;;5.80;;
56567;SDS011;42456;49.956;20.004;2023-12-28T06:16:53;11.50;;;5.80;;
56567;SDS011;42456;49.956;20.004;2023-12-28T06:19:20;12.40;;;5.30;;
56567;SDS011;42456;49.956;20.004;2023-12-28T06:21:47;9.20;;;4.30;;
56567;SDS011;42456;49.956;20.004;2023-12-28T06:24:15;11.20;;;4.50;;
56567;SDS011;42456;49.956;20.004;2023-12-28T06:26:43;8.20;;;4.60;;
56567;SDS011;42456;49.956;20.004;2023-12-28T06:29:11;10.10;;;4.50;;
56567;SDS011;42456;49.956;20.004;2023-12-28T06:31:38;8.50;;;4.50;;
56567;SDS011;42456;49.956;20.004;2023-12-28T06:34:06;10.90;;;5.00;;
56567;SDS011;42456;49.956;20.004;2023-12-28T06:36:34;11.10;;;4.80;;
56567;SDS011;42456;49.956;20.004;2023-12-28T06:39:02;10.40;;;5.20;;
56567;SDS011;42456;49.956;20.004;2023-12-28T06:41:29;12.80;;;5.60;;
56567;SDS011;42456;49.956;20.004;2023-12-28T06:43:55;11.60;;;5.30;;
56567;SDS011;42456;49.956;20.004;2023-12-28T06:46:22;14.10;;;4.90;;
56567;SDS011;42456;49.956;20.004;2023-12-28T06:48:49;10.30;;;5.90;;
56567;SDS011;42456;49.956;20.004;2023-12-28T06:51:19;13.70;;;5.90;;
56567;SDS011;42456;49.956;20.004;2023-12-28T06:53:49;13.00;;;7.10;;
56567;SDS011;42456;49.956;20.004;2023-12-28T06:56:16;10.70;;;5.70;;
56567;SDS011;42456;49.956;20.004;2023-12-28T06:58:44;9.30;;;4.20;;
56567;SDS011;42456;49.956;20.004;2023-12-28T07:01:10;11.50;;;4.50;;
56567;SDS011;42456;49.956;20.004;2023-12-28T07:03:39;9.10;;;4.10;;
56567;SDS011;42456;49.956;20.004;2023-12-28T07:06:07;10.40;;;4.00;;
56567;SDS011;42456;49.956;20.004;2023-12-28T07:08:35;9.50;;;4.10;;
56567;SDS011;42456;49.956;20.004;2023-12-28T07:11:03;9.90;;;4.30;;
56567;SDS011;42456;49.956;20.004;2023-12-28T07:13:31;11.80;;;6.30;;
56567;SDS011;42456;49.956;20.004;2023-12-28T07:15:59;16.90;;;6.40;;
56567;SDS011;42456;49.956;20.004;2023-12-28T07:18:27;13.80;;;6.50;;
56567;SDS011;42456;49.956;20.004;2023-12-28T07:20:55;10.10;;;5.20;;
56567;SDS011;42456;49.956;20.004;2023-12-28T07:23:23;10.30;;;4.70;;
56567;SDS011;42456;49.956;20.004;2023-12-28T07:25:50;12.60;;;5.70;;
56567;SDS011;42456;49.956;20.004;2023-12-28T07:28:17;12.90;;;5.60;;
56567;SDS011;42456;49.956;20.004;2023-12-28T07:30:45;11.20;;;5.00;;
56567;SDS011;42456;49.956;20.004;2023-12-28T07:33:12;10.40;;;4.40;;
56567;SDS011;42456;49.956;20.004;2023-12-28T07:35:39;10.60;;;4.40;;
56567;SDS011;42456;49.956;20.004;2023-12-28T07:38:06;9.70;;;4.50;;
56567;SDS011;42456;49.956;20.004;2023-12-28T07:40:33;7.00;;;4.00;;
56567;SDS011;42456;49.956;20.004;2023-12-28T07:43:00;9.80;;;4.40;;
56567;SDS011;42456;49.956;20.004;2023-12-28T07:45:28;9.90;;;5.20;;
56567;SDS011;42456;49.956;20.004;2023-12-28T07:47:55;10.20;;;5.30;;
56567;SDS011;42456;49.956;20.004;2023-12-28T07:50:23;12.20;;;5.60;;
56567;SDS011;42456;49.956;20.004;2023-12-28T07:52:51;9.30;;;4.80;;
56567;SDS011;42456;49.956;20.004;2023-12-28T07:55:18;8.60;;;4.40;;
56567;SDS011;42456;49.956;20.004;2023-12-28T07:57:44;12.80;;;5.50;;
56567;SDS011;42456;49.956;20.004;2023-12-28T08:00:12;11.10;;;4.70;;
56567;SDS011;42456;49.956;20.004;2023-12-28T08:02:39;11.80;;;5.00;;
56567;SDS011;42456;49.956;20.004;2023-12-28T08:05:06;8.00;;;4.20;;
56567;SDS011;42456;49.956;20.004;2023-12-28T08:07:33;8.90;;;4.60;;
56567;SDS011;42456;49.956;20.004;2023-12-28T08:10:00;8.30;;;4.00;;
56567;SDS011;42456;49.956;20.004;2023-12-28T08:12:27;8.00;;;4.20;;
56567;SDS011;42456;49.956;20.004;2023-12-28T08:14:55;8.00;;;4.20;;
56567;SDS011;42456;49.956;20.004;2023-12-28T08:17:22;8.40;;;4.10;;
56567;SDS011;42456;49.956;20.004;2023-12-28T08:19:50;23.30;;;9.00;;
56567;SDS011;42456;49.956;20.004;2023-12-28T08:22:17;13.10;;;6.40;;
56567;SDS011;42456;49.956;20.004;2023-12-28T08:24:45;8.50;;;5.20;;
56567;SDS011;42456;49.956;20.004;2023-12-28T08:27:13;10.50;;;4.80;;
56567;SDS011;42456;49.956;20.004;2023-12-28T08:29:40;7.90;;;4.80;;
56567;SDS011;42456;49.956;20.004;2023-12-28T08:32:08;14.60;;;5.30;;
56567;SDS011;42456;49.956;20.004;2023-12-28T08:34:37;14.90;;;5.30;;
56567;SDS011;42456;49.956;20.004;2023-12-28T08:37:05;12.70;;;4.80;;
56567;SDS011;42456;49.956;20.004;2023-12-28T08:39:33;11.40;;;4.30;;
56567;SDS011;42456;49.956;20.004;2023-12-28T08:42:00;13.70;;;5.00;;
56567;SDS011;42456;49.956;20.004;2023-12-28T08:44:27;17.00;;;5.70;;
56567;SDS011;42456;49.956;20.004;2023-12-28T08:46:54;16.20;;;6.00;;
56567;SDS011;42456;49.956;20.004;2023-12-28T08:49:21;15.10;;;5.90;;
56567;SDS011;42456;49.956;20.004;2023-12-28T08:51:49;14.30;;;5.60;;
56567;SDS011;42456;49.956;20.004;2023-12-28T08:54:17;15.90;;;6.00;;
56567;SDS011;42456;49.956;20.004;2023-12-28T08:56:44;15.50;;;6.50;;
56567;SDS011;42456;49.956;20.004;2023-12-28T08:59:15;15.70;;;6.20;;
56567;SDS011;42456;49.956;20.004;2023-12-28T09:01:42;18.80;;;6.00;;
56567;SDS011;42456;49.956;20.004;2023-12-28T09:04:09;16.50;;;6.30;;
56567;SDS011;42456;49.956;20.004;2023-12-28T09:06:36;13.70;;;6.10;;
56567;SDS011;42456;49.956;20.004;2023-12-28T09:09:04;15.00;;;5.70;;
56567;SDS011;42456;49.956;20.004;2023-12-28T09:11:32;12.00;;;4.90;;
56567;SDS011;42456;49.956;20.004;2023-12-28T09:13:59;11.90;;;4.60;;
56567;SDS011;42456;49.956;20.004;2023-12-28T09:16:26;10.40;;;4.40;;
56567;SDS011;42456;49.956;20.004;2023-12-28T09:18:54;10.00;;;4.10;;
56567;SDS011;42456;49.956;20.004;2023-12-28T09:21:22;10.30;;;4.00;;
56567;SDS011;42456;49.956;20.004;2023-12-28T09:23:49;10.30;;;4.20;;
56567;SDS011;42456;49.956;20.004;2023-12-28T09:26:16;8.80;;;4.30;;
56567;SDS011;42456;49.956;20.004;2023-12-28T09:28:43;10.00;;;4.30;;
56567;SDS011;42456;49.956;20.004;2023-12-28T09:31:10;9.30;;;4.60;;
56567;SDS011;42456;49.956;20.004;2023-12-28T09:33:37;9.40;;;4.60;;
56567;SDS011;42456;49.956;20.004;2023-12-28T09:36:05;9.20;;;4.40;;
56567;SDS011;42456;49.956;20.004;2023-12-28T09:38:32;10.70;;;5.00;;
56567;SDS011;42456;49.956;20.004;2023-12-28T09:41:03;11.00;;;4.40;;
56567;SDS011;42456;49.956;20.004;2023-12-28T09:43:38;10.20;;;5.20;;
56567;SDS011;42456;49.956;20.004;2023-12-28T09:46:16;10.70;;;5.00;;
56567;SDS011;42456;49.956;20.004;2023-12-28T09:48:43;9.70;;;5.00;;
56567;SDS011;42456;49.956;20.004;2023-12-28T09:51:10;10.70;;;4.50;;
56567;SDS011;42456;49.956;20.004;2023-12-28T09:53:41;12.20;;;5.30;;
56567;SDS011;42456;49.956;20.004;2023-12-28T09:56:10;11.80;;;4.90;;
56567;SDS011;42456;49.956;20.004;2023-12-28T09:58:38;12.80;;;5.40;;
56567;SDS011;42456;49.956;20.004;2023-12-28T10:01:06;17.00;;;5.90;;
56567;SDS011;42456;49.956;20.004;2023-12-28T10:03:36;18.10;;;8.30;;
56567;SDS011;42456;49.956;20.004;2023-12-28T10:06:03;19.80;;;8.90;;
56567;SDS011;42456;49.956;20.004;2023-12-28T10:08:30;15.80;;;7.30;;
56567;SDS011;42456;49.956;20.004;2023-12-28T10:10:57;15.30;;;6.70;;
56567;SDS011;42456;49.956;20.004;2023-12-28T10:13:26;17.80;;;8.90;;
56567;SDS011;42456;49.956;20.004;2023-12-28T10:15:56;19.60;;;8.60;;
56567;SDS011;42456;49.956;20.004;2023-12-28T10:18:24;23.00;;;10.10;;
56567;SDS011;42456;49.956;20.004;2023-12-28T10:20:51;23.70;;;11.50;;
56567;SDS011;42456;49.956;20.004;2023-12-28T10:23:19;21.00;;;9.90;;
56567;SDS011;42456;49.956;20.004;2023-12-28T10:25:50;23.60;;;11.00;;
56567;SDS011;42456;49.956;20.004;2023-12-28T10:28:20;19.90;;;9.70;;
56567;SDS011;42456;49.956;20.004;2023-12-28T10:30:47;18.50;;;9.40;;
56567;SDS011;42456;49.956;20.004;2023-12-28T10:33:14;22.20;;;10.40;;
56567;SDS011;42456;49.956;20.004;2023-12-28T10:35:43;21.30;;;9.80;;
56567;SDS011;42456;49.956;20.004;2023-12-28T10:38:13;20.60;;;9.80;;
56567;SDS011;42456;49.956;20.004;2023-12-28T10:40:46;19.30;;;9.90;;
56567;SDS011;42456;49.956;20.004;2023-12-28T10:43:15;18.30;;;9.60;;
56567;SDS011;42456;49.956;20.004;2023-12-28T10:45:46;23.40;;;10.30;;
56567;SDS011;42456;49.956;20.004;2023-12-28T10:48:15;22.20;;;11.10;;
56567;SDS011;42456;49.956;20.004;2023-12-28T10:50:52;20.90;;;11.10;;
56567;SDS011;42456;49.956;20.004;2023-12-28T10:53:21;19.70;;;10.60;;
56567;SDS011;42456;49.956;20.004;2023-12-28T10:58:50;24.00;;;12.00;;
56567;SDS011;42456;49.956;20.004;2023-12-28T11:01:31;25.80;;;12.90;;
56567;SDS011;42456;49.956;20.004;2023-12-28T11:04:02;25.40;;;13.20;;
56567;SDS011;42456;49.956;20.004;2023-12-28T11:06:36;26.30;;;13.40;;
56567;SDS011;42456;49.956;20.004;2023-12-28T11:09:04;25.50;;;13.50;;
56567;SDS011;42456;49.956;20.004;2023-12-28T11:11:36;24.80;;;13.00;;
56567;SDS011;42456;49.956;20.004;2023-12-28T11:14:05;27.70;;;13.70;;
56567;SDS011;42456;49.956;20.004;2023-12-28T11:16:33;23.50;;;12.20;;
56567;SDS011;42456;49.956;20.004;2023-12-28T11:19:01;23.40;;;12.10;;
56567;SDS011;42456;49.956;20.004;2023-12-28T11:21:29;23.70;;;12.60;;
56567;SDS011;42456;49.956;20.004;2023-12-28T11:23:56;23.70;;;12.80;;
56567;SDS011;42456;49.956;20.004;2023-12-28T11:26:24;24.40;;;11.80;;
56567;SDS011;42456;49.956;20.004;2023-12-28T11:28:59;26.60;;;15.40;;
56567;SDS011;42456;49.956;20.004;2023-12-28T11:31:33;27.40;;;13.10;;
56567;SDS011;42456;49.956;20.004;2023-12-28T11:34:03;25.60;;;13.50;;
56567;SDS011;42456;49.956;20.004;2023-12-28T11:36:40;25.10;;;12.80;;
56567;SDS011;42456;49.956;20.004;2023-12-28T11:39:41;24.80;;;13.20;;
56567;SDS011;42456;49.956;20.004;2023-12-28T11:44:39;23.60;;;11.90;;
56567;SDS011;42456;49.956;20.004;2023-12-28T11:49:42;25.70;;;12.30;;
56567;SDS011;42456;49.956;20.004;2023-12-28T11:52:22;21.90;;;11.60;;
56567;SDS011;42456;49.956;20.004;2023-12-28T11:54:50;21.50;;;10.30;;
56567;SDS011;42456;49.956;20.004;2023-12-28T11:57:17;14.80;;;7.30;;
56567;SDS011;42456;49.956;20.004;2023-12-28T11:59:44;12.80;;;5.60;;
56567;SDS011;42456;49.956;20.004;2023-12-28T12:02:12;11.30;;;5.00;;
56567;SDS011;42456;49.956;20.004;2023-12-28T12:04:40;9.80;;;4.40;;
56567;SDS011;42456;49.956;20.004;2023-12-28T12:07:07;8.10;;;3.80;;
56567;SDS011;42456;49.956;20.004;2023-12-28T12:09:34;6.80;;;3.60;;
56567;SDS011;42456;49.956;20.004;2023-12-28T12:12:01;6.10;;;3.50;;
56567;SDS011;42456;49.956;20.004;2023-12-28T12:14:29;10.80;;;3.70;;
56567;SDS011;42456;49.956;20.004;2023-12-28T12:16:56;6.90;;;3.80;;
56567;SDS011;42456;49.956;20.004;2023-12-28T12:19:25;10.60;;;4.10;;
56567;SDS011;42456;49.956;20.004;2023-12-28T12:21:53;9.20;;;4.20;;
56567;SDS011;42456;49.956;20.004;2023-12-28T12:24:21;10.40;;;3.90;;
56567;SDS011;42456;49.956;20.004;2023-12-28T12:26:49;6.50;;;3.20;;
56567;SDS011;42456;49.956;20.004;2023-12-28T12:29:18;9.30;;;4.00;;
56567;SDS011;42456;49.956;20.004;2023-12-28T12:31:54;7.20;;;4.10;;
56567;SDS011;42456;49.956;20.004;2023-12-28T12:34:20;6.80;;;3.60;;
56567;SDS011;42456;49.956;20.004;2023-12-28T12:36:48;7.90;;;3.60;;
56567;SDS011;42456;49.956;20.004;2023-12-28T12:39:18;5.90;;;3.30;;
56567;SDS011;42456;49.956;20.004;2023-12-28T12:41:46;4.90;;;3.20;;
56567;SDS011;42456;49.956;20.004;2023-12-28T12:44:13;6.60;;;3.40;;
56567;SDS011;42456;49.956;20.004;2023-12-28T12:46:40;6.70;;;3.20;;
56567;SDS011;42456;49.956;20.004;2023-12-28T12:49:07;6.30;;;3.20;;
56567;SDS011;42456;49.956;20.004;2023-12-28T12:51:35;9.10;;;3.80;;
56567;SDS011;42456;49.956;20.004;2023-12-28T12:54:02;5.70;;;3.30;;
56567;SDS011;42456;49.956;20.004;2023-12-28T12:56:29;6.50;;;3.30;;
56567;SDS011;42456;49.956;20.004;2023-12-28T12:58:58;4.80;;;3.00;;
56567;SDS011;42456;49.956;20.004;2023-12-28T13:01:24;5.30;;;3.30;;
56567;SDS011;42456;49.956;20.004;2023-12-28T13:03:52;4.90;;;3.10;;
56567;SDS011;42456;49.956;20.004;2023-12-28T13:06:19;4.70;;;3.20;;
56567;SDS011;42456;49.956;20.004;2023-12-28T13:08:49;7.50;;;3.40;;
56567;SDS011;42456;49.956;20.004;2023-12-28T13:11:16;5.70;;;3.40;;
56567;SDS011;42456;49.956;20.004;2023-12-28T13:13:44;7.80;;;3.30;;
56567;SDS011;42456;49.956;20.004;2023-12-28T13:16:10;7.50;;;3.70;;
56567;SDS011;42456;49.956;20.004;2023-12-28T13:18:37;9.50;;;4.10;;
56567;SDS011;42456;49.956;20.004;2023-12-28T13:21:04;5.60;;;3.40;;
56567;SDS011;42456;49.956;20.004;2023-12-28T13:23:31;8.50;;;3.50;;
56567;SDS011;42456;49.956;20.004;2023-12-28T13:25:58;9.30;;;3.70;;
56567;SDS011;42456;49.956;20.004;2023-12-28T13:28:25;6.90;;;3.70;;
56567;SDS011;42456;49.956;20.004;2023-12-28T13:30:52;7.70;;;3.70;;
56567;SDS011;42456;49.956;20.004;2023-12-28T13:33:22;8.10;;;3.50;;
56567;SDS011;42456;49.956;20.004;2023-12-28T13:35:51;7.10;;;3.30;;
56567;SDS011;42456;49.956;20.004;2023-12-28T13:38:19;7.10;;;3.50;;
56567;SDS011;42456;49.956;20.004;2023-12-28T13:40:46;7.00;;;3.70;;
56567;SDS011;42456;49.956;20.004;2023-12-28T13:43:13;5.80;;;3.50;;
56567;SDS011;42456;49.956;20.004;2023-12-28T13:45:39;7.10;;;3.90;;
56567;SDS011;42456;49.956;20.004;2023-12-28T13:48:06;7.20;;;3.90;;
56567;SDS011;42456;49.956;20.004;2023-12-28T13:50:35;9.20;;;4.10;;
56567;SDS011;42456;49.956;20.004;2023-12-28T13:53:03;8.30;;;3.80;;
56567;SDS011;42456;49.956;20.004;2023-12-28T13:55:32;9.40;;;4.30;;
56567;SDS011;42456;49.956;20.004;2023-12-28T13:58:00;7.70;;;3.90;;
56567;SDS011;42456;49.956;20.004;2023-12-28T14:00:27;8.00;;;3.40;;
56567;SDS011;42456;49.956;20.004;2023-12-28T14:02:54;6.60;;;3.30;;
56567;SDS011;42456;49.956;20.004;2023-12-28T14:05:21;7.10;;;3.90;;
56567;SDS011;42456;49.956;20.004;2023-12-28T14:07:50;7.70;;;3.70;;
56567;SDS011;42456;49.956;20.004;2023-12-28T14:10:17;8.30;;;4.00;;
56567;SDS011;42456;49.956;20.004;2023-12-28T14:12:44;8.00;;;3.70;;
56567;SDS011;42456;49.956;20.004;2023-12-28T14:15:11;9.80;;;5.20;;
56567;SDS011;42456;49.956;20.004;2023-12-28T14:17:41;7.90;;;4.80;;
56567;SDS011;42456;49.956;20.004;2023-12-28T14:20:09;10.00;;;5.00;;
56567;SDS011;42456;49.956;20.004;2023-12-28T14:22:38;9.10;;;4.20;;
56567;SDS011;42456;49.956;20.004;2023-12-28T14:25:05;8.50;;;4.30;;
56567;SDS011;42456;49.956;20.004;2023-12-28T14:27:33;11.80;;;5.80;;
56567;SDS011;42456;49.956;20.004;2023-12-28T14:30:01;10.80;;;4.90;;
56567;SDS011;42456;49.956;20.004;2023-12-28T14:32:30;9.70;;;4.80;;
56567;SDS011;42456;49.956;20.004;2023-12-28T14:34:57;12.00;;;7.20;;
56567;SDS011;42456;49.956;20.004;2023-12-28T14:37:24;12.00;;;6.20;;